Time;durP1;ratioP1;P1;durP2;ratioP2;P2;SDS_P1;SDS_P2;PMS_P1;PMS_P2;Temp;Humidity;BMP_temperature;BMP_pressure;BME280_temperature;BME280_humidity;BME280_pressure;Samples;Min_cycle;Max_cycle;Signal;HPM_P1;HPM_P2
2021/08/15 00:02:04;;;;;;;28.93;18.10;;;;;;;;;;4974742;28;20973;-49
2021/08/15 00:04:30;;;;;;;30.93;18.33;;;;;;;;;;4974907;28;20377;-50
2021/08/15 00:06:56;;;;;;;25.93;17.23;;;;;;;;;;4974726;28;20382;-50
2021/08/15 00:09:22;;;;;;;27.60;18.30;;;;;;;;;;4974575;28;20407;-50
2021/08/15 00:11:48;;;;;;;28.20;17.70;;;;;;;;;;4974455;28;20430;-50
2021/08/15 00:14:14;;;;;;;26.70;17.83;;;;;;;;;;4974709;28;20426;-50
2021/08/15 00:16:40;;;;;;;32.77;18.47;;;;;;;;;;4974567;28;20409;-50
2021/08/15 00:19:06;;;;;;;25.47;17.73;;;;;;;;;;4974680;28;20393;-50
2021/08/15 00:21:36;;;;;;;27.27;19.27;;;;;;;;;;4974280;28;20443;-50
2021/08/15 00:24:02;;;;;;;34.27;18.80;;;;;;;;;;4974934;28;20409;-50
2021/08/15 00:26:28;;;;;;;33.90;19.10;;;;;;;;;;4974635;28;20392;-50
2021/08/15 00:28:54;;;;;;;32.47;19.80;;;;;;;;;;4974527;28;20493;-51
2021/08/15 00:31:20;;;;;;;33.53;19.30;;;;;;;;;;4974437;28;20420;-50
2021/08/15 00:33:46;;;;;;;29.27;20.37;;;;;;;;;;4974581;28;20980;-50
2021/08/15 00:36:12;;;;;;;31.53;18.67;;;;;;;;;;4974578;28;20383;-50
2021/08/15 00:38:38;;;;;;;27.73;19.57;;;;;;;;;;4974409;28;20387;-50
2021/08/15 00:41:06;;;;;;;30.03;20.37;;;;;;;;;;4974131;28;20433;-49
2021/08/15 00:43:32;;;;;;;27.33;18.80;;;;;;;;;;4974337;28;20396;-50
2021/08/15 00:45:59;;;;;;;24.80;18.10;;;;;;;;;;4974067;28;20385;-49
2021/08/15 00:48:25;;;;;;;27.63;17.33;;;;;;;;;;4974055;28;20418;-50
2021/08/15 00:50:51;;;;;;;30.37;19.27;;;;;;;;;;4973441;28;20443;-49
2021/08/15 00:53:17;;;;;;;35.03;19.70;;;;;;;;;;4974129;28;20421;-49
2021/08/15 00:55:43;;;;;;;27.83;18.30;;;;;;;;;;4973870;28;20413;-49
2021/08/15 00:58:09;;;;;;;29.90;19.27;;;;;;;;;;4973846;28;20386;-50
2021/08/15 01:00:35;;;;;;;33.00;20.17;;;;;;;;;;4973236;28;20943;-49
2021/08/15 01:03:01;;;;;;;30.97;19.67;;;;;;;;;;4973295;28;20890;-50
2021/08/15 01:05:28;;;;;;;33.10;20.60;;;;;;;;;;4973148;28;20947;-50
2021/08/15 01:07:54;;;;;;;30.30;20.77;;;;;;;;;;4972671;28;20466;-50
2021/08/15 01:10:20;;;;;;;30.40;18.90;;;;;;;;;;4973311;28;20856;-50
2021/08/15 01:12:46;;;;;;;27.53;18.07;;;;;;;;;;4973593;28;20409;-49
2021/08/15 01:15:12;;;;;;;36.67;19.53;;;;;;;;;;4973409;28;20912;-50
2021/08/15 01:17:39;;;;;;;97.00;56.50;;;;;;;;;;4973869;28;20766;-49
2021/08/15 01:20:06;;;;;;;31.70;20.30;;;;;;;;;;4973050;28;20406;-49
2021/08/15 01:22:34;;;;;;;115.93;28.23;;;;;;;;;;4973360;28;20813;-51
2021/08/15 01:25:05;;;;;;;30.73;19.90;;;;;;;;;;4973439;28;20410;-50
2021/08/15 01:27:32;;;;;;;17.20;1.60;;;;;;;;;;4973330;28;20419;-49
2021/08/15 01:29:59;;;;;;;23.43;2.50;;;;;;;;;;4973137;28;20408;-50
2021/08/15 01:32:25;;;;;;;29.93;4.70;;;;;;;;;;4973140;28;20415;-50
2021/08/15 01:34:51;;;;;;;23.37;2.00;;;;;;;;;;4973065;28;20756;-50
2021/08/15 01:37:21;;;;;;;24.10;1.80;;;;;;;;;;4973280;28;20444;-49
2021/08/15 01:39:47;;;;;;;25.80;2.20;;;;;;;;;;4972840;28;20493;-49
2021/08/15 01:42:13;;;;;;;27.20;2.20;;;;;;;;;;4972969;28;20531;-50
2021/08/15 01:44:38;;;;;;;28.20;2.63;;;;;;;;;;4973041;28;20663;-51
2021/08/15 01:47:04;;;;;;;29.80;3.00;;;;;;;;;;4972915;28;20389;-50
2021/08/15 01:49:30;;;;;;;27.20;2.40;;;;;;;;;;4973018;28;20379;-50
2021/08/15 01:51:56;;;;;;;20.73;1.53;;;;;;;;;;5003624;22;20890;-47
2021/08/15 01:54:22;;;;;;;23.30;1.90;;;;;;;;;;4992267;28;20403;-46
2021/08/15 01:56:48;;;;;;;26.43;2.00;;;;;;;;;;4992358;28;20399;-47
2021/08/15 01:59:14;;;;;;;27.87;2.20;;;;;;;;;;4992165;28;20784;-47
2021/08/15 02:01:40;;;;;;;31.03;3.30;;;;;;;;;;4992108;28;20527;-46
2021/08/15 02:04:06;;;;;;;34.27;3.83;;;;;;;;;;4992335;28;20841;-46
2021/08/15 02:06:32;;;;;;;34.80;4.10;;;;;;;;;;4991971;28;20884;-46
2021/08/15 02:08:59;;;;;;;33.30;3.30;;;;;;;;;;4991988;28;20808;-46
2021/08/15 02:11:25;;;;;;;37.93;4.23;;;;;;;;;;4991715;28;20426;-46
2021/08/15 02:13:51;;;;;;;40.37;4.73;;;;;;;;;;4991912;28;20405;-46
2021/08/15 02:16:17;;;;;;;42.30;5.03;;;;;;;;;;4991666;28;20440;-46
2021/08/15 02:18:43;;;;;;;43.03;5.40;;;;;;;;;;4991807;28;20414;-46
2021/08/15 02:21:09;;;;;;;46.47;5.20;;;;;;;;;;4991667;28;20526;-46
2021/08/15 02:23:35;;;;;;;36.47;4.20;;;;;;;;;;4991639;28;20869;-46
2021/08/15 02:26:01;;;;;;;40.10;4.57;;;;;;;;;;4991673;28;20367;-46
2021/08/15 02:28:27;;;;;;;41.30;4.50;;;;;;;;;;4991903;28;20875;-46
2021/08/15 02:30:53;;;;;;;46.60;5.87;;;;;;;;;;4991601;28;20419;-46
2021/08/15 02:33:19;;;;;;;47.20;5.60;;;;;;;;;;4974858;28;20428;-47
2021/08/15 02:35:45;;;;;;;46.80;5.70;;;;;;;;;;4992021;28;20400;-47
2021/08/15 02:38:12;;;;;;;49.40;6.30;;;;;;;;;;4991934;28;20415;-46
2021/08/15 02:40:38;;;;;;;62.20;14.80;;;;;;;;;;4991752;28;20538;-46
2021/08/15 02:43:04;;;;;;;59.80;12.20;;;;;;;;;;4974303;28;20479;-46
2021/08/15 02:45:30;;;;;;;65.97;15.60;;;;;;;;;;4991865;28;20499;-46
2021/08/15 02:47:56;;;;;;;66.40;15.07;;;;;;;;;;4991780;28;20474;-46
2021/08/15 02:50:22;;;;;;;61.57;15.30;;;;;;;;;;4991417;28;20379;-46
2021/08/15 02:52:48;;;;;;;64.50;16.07;;;;;;;;;;4991357;28;20411;-46
2021/08/15 02:55:14;;;;;;;62.20;18.80;;;;;;;;;;4991470;28;20397;-47
2021/08/15 02:57:40;;;;;;;62.27;19.00;;;;;;;;;;4991454;28;20405;-46
2021/08/15 03:00:08;;;;;;;62.37;16.80;;;;;;;;;;4991215;28;20885;-46
2021/08/15 03:02:34;;;;;;;59.07;18.70;;;;;;;;;;4991282;28;20470;-46
2021/08/15 03:05:00;;;;;;;57.40;20.00;;;;;;;;;;4991407;28;20386;-46
2021/08/15 03:07:26;;;;;;;56.40;20.73;;;;;;;;;;4991175;28;20415;-46
2021/08/15 03:09:52;;;;;;;52.67;19.43;;;;;;;;;;4991223;28;20388;-46
2021/08/15 03:12:18;;;;;;;53.90;17.97;;;;;;;;;;4991150;28;20493;-46
2021/08/15 03:14:44;;;;;;;51.73;17.50;;;;;;;;;;4991125;28;20484;-46
2021/08/15 03:17:10;;;;;;;54.70;18.57;;;;;;;;;;4991308;28;20388;-46
2021/08/15 03:19:37;;;;;;;48.27;17.87;;;;;;;;;;4991045;28;20751;-46
2021/08/15 03:22:03;;;;;;;46.97;17.83;;;;;;;;;;4990897;28;20434;-46
2021/08/15 03:24:29;;;;;;;47.37;18.93;;;;;;;;;;4990963;28;20427;-46
2021/08/15 03:26:55;;;;;;;45.10;19.27;;;;;;;;;;4990899;28;20880;-46
2021/08/15 03:29:21;;;;;;;48.63;19.07;;;;;;;;;;4991006;28;20753;-46
2021/08/15 03:31:47;;;;;;;41.80;20.87;;;;;;;;;;4994256;28;20486;-47
2021/08/15 03:34:13;;;;;;;109.30;25.23;;;;;;;;;;4994842;28;20721;-46
2021/08/15 03:36:39;;;;;;;38.57;24.20;;;;;;;;;;4994600;28;20421;-46
2021/08/15 03:39:06;;;;;;;31.63;21.60;;;;;;;;;;4994756;28;20419;-46
2021/08/15 03:41:32;;;;;;;31.93;19.63;;;;;;;;;;4994396;28;20414;-46
2021/08/15 03:43:58;;;;;;;33.13;20.90;;;;;;;;;;4994497;28;20388;-46
2021/08/15 03:46:24;;;;;;;37.33;21.60;;;;;;;;;;4994525;28;20378;-46
2021/08/15 03:48:50;;;;;;;31.33;20.47;;;;;;;;;;4994510;28;20462;-46
2021/08/15 03:51:16;;;;;;;30.50;20.27;;;;;;;;;;4994274;28;20881;-46
2021/08/15 03:53:42;;;;;;;32.07;22.13;;;;;;;;;;4994339;28;20517;-46
2021/08/15 03:56:08;;;;;;;37.00;21.50;;;;;;;;;;4994413;28;20500;-46
2021/08/15 03:58:34;;;;;;;37.13;21.63;;;;;;;;;;4994194;28;20409;-46
2021/08/15 04:01:00;;;;;;;39.00;23.00;;;;;;;;;;4994244;28;20433;-46
2021/08/15 04:03:26;;;;;;;33.10;21.77;;;;;;;;;;4994235;28;20403;-46
2021/08/15 04:05:55;;;;;;;26.03;19.90;;;;;;;;;;4994270;28;20783;-47
2021/08/15 04:08:21;;;;;;;28.10;20.00;;;;;;;;;;4994076;28;20795;-47
2021/08/15 04:10:47;;;;;;;37.27;20.40;;;;;;;;;;4993972;28;20414;-46
2021/08/15 04:13:13;;;;;;;31.83;20.40;;;;;;;;;;4993917;28;20497;-46
2021/08/15 04:15:39;;;;;;;35.30;20.37;;;;;;;;;;4994251;28;20410;-46
2021/08/15 04:18:05;;;;;;;34.77;20.80;;;;;;;;;;4994013;28;20387;-46
2021/08/15 04:20:31;;;;;;;30.60;21.10;;;;;;;;;;4993604;28;20426;-46
2021/08/15 04:22:57;;;;;;;43.33;38.10;;;;;;;;;;4993956;28;20470;-46
2021/08/15 04:25:23;;;;;;;36.00;21.67;;;;;;;;;;4993772;28;20408;-47
2021/08/15 04:27:49;;;;;;;28.93;19.83;;;;;;;;;;4993738;28;20496;-47
2021/08/15 04:30:15;;;;;;;37.93;23.10;;;;;;;;;;4993789;28;20414;-46
2021/08/15 04:32:41;;;;;;;37.60;21.97;;;;;;;;;;4993706;28;20392;-47
2021/08/15 04:35:08;;;;;;;35.60;22.20;;;;;;;;;;4993705;28;20397;-46
2021/08/15 04:37:34;;;;;;;34.53;23.20;;;;;;;;;;4993600;28;20387;-46
2021/08/15 04:40:00;;;;;;;32.40;21.87;;;;;;;;;;4993495;28;20733;-46
2021/08/15 04:42:26;;;;;;;34.10;20.60;;;;;;;;;;4992154;28;20514;-47
2021/08/15 04:44:51;;;;;;;39.00;22.03;;;;;;;;;;4993542;28;20499;-46
2021/08/15 04:47:17;;;;;;;31.80;21.77;;;;;;;;;;4993544;28;20384;-47
2021/08/15 04:49:43;;;;;;;50.53;37.53;;;;;;;;;;4993262;28;20413;-47
2021/08/15 04:52:09;;;;;;;31.63;21.27;;;;;;;;;;4993350;28;20422;-46
2021/08/15 04:54:35;;;;;;;32.37;21.50;;;;;;;;;;4993446;28;20888;-46
2021/08/15 04:57:01;;;;;;;33.60;22.00;;;;;;;;;;4993402;28;20415;-46
2021/08/15 04:59:27;;;;;;;30.23;18.77;;;;;;;;;;4993593;28;20423;-46
2021/08/15 05:01:54;;;;;;;32.40;21.33;;;;;;;;;;4975486;28;20556;-46
2021/08/15 05:04:20;;;;;;;32.23;20.47;;;;;;;;;;4993163;28;20383;-46
2021/08/15 05:06:47;;;;;;;25.77;21.27;;;;;;;;;;4992983;28;20438;-46
2021/08/15 05:09:13;;;;;;;41.73;23.13;;;;;;;;;;4993079;28;20417;-46
2021/08/15 05:11:39;;;;;;;28.43;20.80;;;;;;;;;;4992666;28;20411;-46
2021/08/15 05:14:06;;;;;;;34.27;22.30;;;;;;;;;;4992998;28;20413;-46
2021/08/15 05:16:32;;;;;;;34.07;22.47;;;;;;;;;;4993176;28;20419;-46
2021/08/15 05:18:58;;;;;;;34.90;21.90;;;;;;;;;;4992876;28;20377;-47
2021/08/15 05:21:24;;;;;;;27.87;19.73;;;;;;;;;;4992641;28;20456;-45
2021/08/15 05:23:50;;;;;;;32.07;22.00;;;;;;;;;;4992838;28;20403;-44
2021/08/15 05:26:16;;;;;;;34.73;21.50;;;;;;;;;;4992701;28;20376;-44
2021/08/15 05:28:42;;;;;;;30.30;21.30;;;;;;;;;;4992593;28;20453;-44
2021/08/15 05:31:08;;;;;;;27.57;20.00;;;;;;;;;;4992470;28;20932;-45
2021/08/15 05:33:34;;;;;;;35.80;21.30;;;;;;;;;;4992353;28;20492;-45
2021/08/15 05:36:00;;;;;;;38.97;23.83;;;;;;;;;;4992584;28;20407;-44
2021/08/15 05:38:26;;;;;;;31.07;20.00;;;;;;;;;;4992383;28;20429;-44
2021/08/15 05:40:52;;;;;;;37.00;21.77;;;;;;;;;;4992191;28;20513;-45
2021/08/15 05:43:18;;;;;;;35.83;21.10;;;;;;;;;;4992334;28;20497;-45
2021/08/15 05:45:44;;;;;;;30.77;17.90;;;;;;;;;;4992469;28;20382;-45
2021/08/15 05:48:10;;;;;;;25.27;20.00;;;;;;;;;;4992007;28;20415;-44
2021/08/15 05:50:36;;;;;;;41.33;20.47;;;;;;;;;;4992107;28;20414;-45
2021/08/15 05:53:02;;;;;;;26.90;18.30;;;;;;;;;;4991663;28;20509;-44
2021/08/15 05:55:28;;;;;;;32.40;18.13;;;;;;;;;;4992115;28;20909;-45
2021/08/15 05:57:54;;;;;;;26.10;17.93;;;;;;;;;;4992223;28;20415;-45
2021/08/15 06:00:20;;;;;;;30.20;19.03;;;;;;;;;;4991890;28;20405;-45
2021/08/15 06:02:46;;;;;;;27.87;18.60;;;;;;;;;;4991897;28;20409;-44
2021/08/15 06:05:15;;;;;;;29.00;17.83;;;;;;;;;;4991995;28;20374;-44
2021/08/15 06:07:41;;;;;;;32.43;19.23;;;;;;;;;;4991792;28;20783;-46
2021/08/15 06:10:08;;;;;;;33.70;18.60;;;;;;;;;;4991718;28;20922;-44
2021/08/15 06:12:38;;;;;;;27.50;16.07;;;;;;;;;;4992252;28;20395;-45
2021/08/15 06:15:05;;;;;;;29.77;19.63;;;;;;;;;;4991819;28;20401;-44
2021/08/15 06:17:31;;;;;;;25.57;17.80;;;;;;;;;;4992213;28;20403;-45
2021/08/15 06:19:58;;;;;;;25.83;17.73;;;;;;;;;;4991555;28;20882;-44
2021/08/15 06:22:24;;;;;;;31.30;17.60;;;;;;;;;;4991572;28;20482;-44
2021/08/15 06:24:50;;;;;;;27.23;16.83;;;;;;;;;;4991676;28;20902;-45
2021/08/15 06:27:16;;;;;;;27.17;18.47;;;;;;;;;;4991634;28;20876;-45
2021/08/15 06:29:42;;;;;;;23.23;16.07;;;;;;;;;;4991463;28;20405;-45
2021/08/15 06:32:08;;;;;;;23.40;16.77;;;;;;;;;;4991552;28;20438;-44
2021/08/15 06:34:34;;;;;;;22.53;14.30;;;;;;;;;;4991655;28;20440;-44
2021/08/15 06:37:00;;;;;;;20.23;13.93;;;;;;;;;;4991474;28;20442;-44
2021/08/15 06:39:26;;;;;;;19.20;12.80;;;;;;;;;;4991555;28;20406;-45
2021/08/15 06:41:52;;;;;;;22.97;14.20;;;;;;;;;;4991578;28;20800;-45
2021/08/15 06:44:17;;;;;;;17.00;11.93;;;;;;;;;;4992052;28;20477;-45
2021/08/15 06:46:43;;;;;;;23.60;12.90;;;;;;;;;;4991591;28;20427;-45
2021/08/15 06:49:10;;;;;;;19.63;11.10;;;;;;;;;;4991688;28;20406;-44
2021/08/15 06:51:36;;;;;;;20.37;11.53;;;;;;;;;;4991082;28;20496;-44
2021/08/15 06:54:02;;;;;;;20.83;14.07;;;;;;;;;;4990640;28;20908;-45
2021/08/15 06:56:28;;;;;;;21.50;11.57;;;;;;;;;;4990563;28;20910;-44
2021/08/15 06:58:54;;;;;;;21.67;10.83;;;;;;;;;;4990528;28;20464;-45
2021/08/15 07:01:20;;;;;;;20.03;12.10;;;;;;;;;;4990102;28;20448;-44
2021/08/15 07:03:46;;;;;;;17.30;10.77;;;;;;;;;;4990430;28;20409;-45
2021/08/15 07:06:12;;;;;;;14.53;10.00;;;;;;;;;;4992175;28;20422;-45
2021/08/15 07:08:38;;;;;;;15.00;9.70;;;;;;;;;;4993509;28;20441;-45
2021/08/15 07:11:04;;;;;;;19.23;9.33;;;;;;;;;;4993275;28;20432;-44
2021/08/15 07:13:30;;;;;;;24.17;9.20;;;;;;;;;;4993325;28;21010;-45
2021/08/15 07:15:56;;;;;;;13.53;8.63;;;;;;;;;;4993206;28;20898;-45
2021/08/15 07:18:22;;;;;;;16.80;9.00;;;;;;;;;;4993247;28;20407;-44
2021/08/15 07:20:51;;;;;;;11.07;7.50;;;;;;;;;;4993424;28;20582;-44
2021/08/15 07:23:17;;;;;;;9.57;7.83;;;;;;;;;;4993276;28;20432;-45
2021/08/15 07:25:43;;;;;;;12.97;7.20;;;;;;;;;;4993860;28;20470;-45
2021/08/15 07:28:09;;;;;;;11.90;7.17;;;;;;;;;;4993649;28;20776;-45
2021/08/15 07:30:36;;;;;;;9.77;7.10;;;;;;;;;;4993364;28;20416;-45
2021/08/15 07:33:04;;;;;;;10.33;7.00;;;;;;;;;;4993390;28;20428;-46
2021/08/15 07:35:31;;;;;;;9.50;6.57;;;;;;;;;;4993609;28;20404;-44
2021/08/15 07:37:57;;;;;;;10.60;6.67;;;;;;;;;;4993436;28;20875;-45
2021/08/15 07:40:23;;;;;;;9.93;6.40;;;;;;;;;;4993412;28;20411;-45
2021/08/15 07:42:51;;;;;;;8.50;6.30;;;;;;;;;;4993413;28;20481;-45
2021/08/15 07:45:17;;;;;;;8.63;5.60;;;;;;;;;;4993536;28;20886;-45
2021/08/15 07:47:43;;;;;;;13.73;6.40;;;;;;;;;;4993272;28;20425;-45
2021/08/15 07:50:10;;;;;;;9.03;6.13;;;;;;;;;;4993275;28;20859;-45
2021/08/15 07:52:36;;;;;;;8.30;5.63;;;;;;;;;;4957040;28;1076075;-44
2021/08/15 07:55:03;;;;;;;7.40;5.27;;;;;;;;;;4994566;28;20788;-45
2021/08/15 07:57:30;;;;;;;5.90;5.10;;;;;;;;;;4994506;28;20439;-44
2021/08/15 07:59:57;;;;;;;9.10;5.60;;;;;;;;;;4994203;28;20435;-45
2021/08/15 08:02:23;;;;;;;8.53;4.80;;;;;;;;;;4994170;28;20459;-46
2021/08/15 08:04:51;;;;;;;8.30;4.73;;;;;;;;;;4994228;28;20797;-45
2021/08/15 08:07:19;;;;;;;5.80;4.57;;;;;;;;;;4994260;28;20479;-45
2021/08/15 08:09:45;;;;;;;10.63;4.87;;;;;;;;;;4994038;28;20902;-46
2021/08/15 08:12:11;;;;;;;6.20;3.90;;;;;;;;;;4994185;28;20419;-45
2021/08/15 08:14:37;;;;;;;6.93;4.27;;;;;;;;;;4994063;28;20552;-45
2021/08/15 08:17:03;;;;;;;5.60;4.43;;;;;;;;;;4993842;28;20411;-45
2021/08/15 08:19:29;;;;;;;6.80;4.80;;;;;;;;;;4994093;28;20404;-45
2021/08/15 08:21:55;;;;;;;6.57;4.53;;;;;;;;;;4993793;28;20474;-45
2021/08/15 08:24:21;;;;;;;8.17;3.90;;;;;;;;;;4994040;28;20439;-46
2021/08/15 08:26:47;;;;;;;6.47;4.70;;;;;;;;;;4993953;28;20408;-44
2021/08/15 08:29:13;;;;;;;6.53;4.20;;;;;;;;;;4993543;28;21096;-45
2021/08/15 08:31:39;;;;;;;8.53;3.90;;;;;;;;;;4993401;28;20427;-44
2021/08/15 08:34:05;;;;;;;5.67;3.80;;;;;;;;;;4993841;28;20467;-44
2021/08/15 08:36:31;;;;;;;9.97;4.70;;;;;;;;;;4993891;28;20946;-44
2021/08/15 08:38:57;;;;;;;4.97;3.90;;;;;;;;;;4993694;28;20435;-44
2021/08/15 08:41:23;;;;;;;4.97;3.63;;;;;;;;;;4993681;28;20456;-45
2021/08/15 08:43:49;;;;;;;7.27;4.80;;;;;;;;;;4993871;28;20404;-45
2021/08/15 08:46:15;;;;;;;5.47;4.27;;;;;;;;;;4993748;28;20815;-45
2021/08/15 08:48:41;;;;;;;6.63;4.60;;;;;;;;;;4994040;28;20455;-45
2021/08/15 08:51:07;;;;;;;4.80;3.83;;;;;;;;;;4993890;28;20435;-45
2021/08/15 08:53:35;;;;;;;4.30;3.90;;;;;;;;;;4993670;28;20447;-44
2021/08/15 08:56:01;;;;;;;5.10;4.30;;;;;;;;;;4993484;28;20518;-45
2021/08/15 08:58:27;;;;;;;7.13;4.10;;;;;;;;;;4993385;28;20966;-45
2021/08/15 09:00:53;;;;;;;8.40;4.50;;;;;;;;;;4993053;28;20606;-45
2021/08/15 09:03:19;;;;;;;7.07;4.70;;;;;;;;;;4993242;28;20424;-45
2021/08/15 09:05:52;;;;;;;7.60;4.40;;;;;;;;;;4993183;28;20408;-44
2021/08/15 09:08:29;;;;;;;5.07;4.33;;;;;;;;;;4993082;28;20487;-45
2021/08/15 09:11:09;;;;;;;4.90;4.10;;;;;;;;;;4992785;28;21162;-44
2021/08/15 09:13:35;;;;;;;6.73;3.67;;;;;;;;;;4993156;28;20434;-45
2021/08/15 09:16:01;;;;;;;9.37;4.70;;;;;;;;;;4992816;28;20412;-45
2021/08/15 09:18:28;;;;;;;7.57;4.37;;;;;;;;;;4992995;28;20404;-46
2021/08/15 09:20:54;;;;;;;8.90;3.80;;;;;;;;;;4992655;28;20465;-45
2021/08/15 09:23:22;;;;;;;5.50;3.77;;;;;;;;;;4992852;28;20511;-45
2021/08/15 09:26:08;;;;;;;5.90;3.70;;;;;;;;;;4992719;28;20404;-45
2021/08/15 09:28:35;;;;;;;7.60;4.10;;;;;;;;;;4992179;28;20404;-45
2021/08/15 09:31:19;;;;;;;9.83;4.10;;;;;;;;;;4992556;28;20479;-44
2021/08/15 09:33:45;;;;;;;6.47;3.17;;;;;;;;;;4992581;28;20416;-44
2021/08/15 09:36:11;;;;;;;4.83;3.17;;;;;;;;;;4975022;28;20804;-45
2021/08/15 09:38:45;;;;;;;15.10;3.50;;;;;;;;;;4992601;28;20494;-45
2021/08/15 09:41:24;;;;;;;6.87;3.97;;;;;;;;;;4992198;28;20546;-45
2021/08/15 09:43:50;;;;;;;7.40;3.57;;;;;;;;;;4992482;28;20400;-45
2021/08/15 09:46:16;;;;;;;3.63;2.90;;;;;;;;;;4992244;28;20911;-45
2021/08/15 09:48:42;;;;;;;3.40;3.10;;;;;;;;;;4992401;28;20408;-45
2021/08/15 09:51:14;;;;;;;4.30;3.90;;;;;;;;;;4992109;28;20404;-45
2021/08/15 09:53:40;;;;;;;4.57;3.30;;;;;;;;;;4992201;28;20432;-45
2021/08/15 09:56:06;;;;;;;5.70;4.00;;;;;;;;;;4992287;28;20412;-46
2021/08/15 09:58:32;;;;;;;4.30;2.90;;;;;;;;;;4992221;28;20444;-45
2021/08/15 10:01:00;;;;;;;9.03;3.00;;;;;;;;;;4991901;28;20487;-45
2021/08/15 10:03:26;;;;;;;8.33;2.97;;;;;;;;;;4992223;28;20427;-45
2021/08/15 10:05:54;;;;;;;5.40;3.30;;;;;;;;;;4992126;28;20407;-45
2021/08/15 10:08:20;;;;;;;5.10;2.83;;;;;;;;;;4992248;28;20499;-45
2021/08/15 10:10:46;;;;;;;3.47;2.70;;;;;;;;;;4991827;28;20495;-45
2021/08/15 10:13:12;;;;;;;3.10;2.80;;;;;;;;;;4990452;28;20435;-45
2021/08/15 10:15:39;;;;;;;3.33;2.97;;;;;;;;;;4991801;28;20408;-45
2021/08/15 10:18:06;;;;;;;4.93;3.13;;;;;;;;;;4991721;28;20440;-45
2021/08/15 10:20:32;;;;;;;3.87;3.40;;;;;;;;;;4991574;28;20404;-45
2021/08/15 10:23:12;;;;;;;4.50;3.00;;;;;;;;;;4991633;28;20416;-45
2021/08/15 10:25:47;;;;;;;5.23;3.10;;;;;;;;;;4991770;28;20407;-46
2021/08/15 10:28:33;;;;;;;3.70;3.00;;;;;;;;;;4991478;28;20396;-45
2021/08/15 10:30:59;;;;;;;7.13;4.57;;;;;;;;;;4991089;28;20436;-45
2021/08/15 10:33:26;;;;;;;4.20;3.40;;;;;;;;;;4991498;28;20514;-45
2021/08/15 10:36:11;;;;;;;6.00;2.80;;;;;;;;;;4991716;28;20936;-46
2021/08/15 10:38:37;;;;;;;5.10;3.43;;;;;;;;;;4991401;28;20407;-45
2021/08/15 10:41:03;;;;;;;5.00;2.90;;;;;;;;;;4991337;28;20460;-45
2021/08/15 10:43:32;;;;;;;7.50;4.40;;;;;;;;;;4991550;28;20429;-45
2021/08/15 10:46:11;;;;;;;5.53;3.50;;;;;;;;;;4991487;28;20765;-45
2021/08/15 10:48:53;;;;;;;4.47;3.43;;;;;;;;;;4991791;28;20409;-45
2021/08/15 10:51:38;;;;;;;5.30;2.80;;;;;;;;;;4991406;28;20408;-46
2021/08/15 10:54:04;;;;;;;3.90;3.60;;;;;;;;;;4980367;28;20440;-45
2021/08/15 10:56:51;;;;;;;4.67;3.20;;;;;;;;;;4972033;28;20413;-45
2021/08/15 10:59:30;;;;;;;3.23;2.93;;;;;;;;;;4971957;28;20416;-47
2021/08/15 11:02:07;;;;;;;6.50;3.20;;;;;;;;;;4971695;28;20452;-45
2021/08/15 11:04:33;;;;;;;6.10;2.60;;;;;;;;;;4972217;28;20409;-46
2021/08/15 11:06:59;;;;;;;4.93;3.13;;;;;;;;;;4975104;28;20882;-47
2021/08/15 11:09:45;;;;;;;5.47;3.40;;;;;;;;;;4991286;28;20415;-47
2021/08/15 11:12:12;;;;;;;4.43;3.20;;;;;;;;;;4991028;28;20897;-48
2021/08/15 11:14:52;;;;;;;11.33;4.93;;;;;;;;;;4990053;28;20416;-49
2021/08/15 11:17:19;;;;;;;5.43;3.00;;;;;;;;;;4991026;28;20478;-48
2021/08/15 11:19:45;;;;;;;5.37;3.17;;;;;;;;;;4989499;28;20415;-47
2021/08/15 11:22:11;;;;;;;7.53;3.60;;;;;;;;;;4990796;28;20851;-47
2021/08/15 11:24:46;;;;;;;3.80;3.40;;;;;;;;;;4991123;28;20415;-48
2021/08/15 11:27:13;;;;;;;6.13;3.30;;;;;;;;;;4990332;28;20439;-49
2021/08/15 11:29:40;;;;;;;6.30;3.43;;;;;;;;;;4990705;28;20406;-48
2021/08/15 11:32:11;;;;;;;4.13;3.10;;;;;;;;;;4990678;28;20428;-47
2021/08/15 11:34:37;;;;;;;6.53;3.60;;;;;;;;;;4990512;28;20436;-47
2021/08/15 11:37:05;;;;;;;6.43;3.00;;;;;;;;;;4990804;28;20460;-47
2021/08/15 11:39:34;;;;;;;6.40;3.50;;;;;;;;;;4990748;28;20415;-48
2021/08/15 11:42:05;;;;;;;6.37;3.13;;;;;;;;;;4989621;28;20841;-47
2021/08/15 11:44:50;;;;;;;7.27;3.30;;;;;;;;;;4989292;28;20412;-47
2021/08/15 11:47:18;;;;;;;4.20;3.10;;;;;;;;;;4990392;28;20396;-48
2021/08/15 11:49:44;;;;;;;5.13;3.40;;;;;;;;;;4990477;28;20424;-47
2021/08/15 11:52:19;;;;;;;6.10;3.83;;;;;;;;;;4993052;28;20474;-47
2021/08/15 11:54:45;;;;;;;5.30;3.60;;;;;;;;;;4994323;28;20438;-47
2021/08/15 11:57:11;;;;;;;5.23;3.50;;;;;;;;;;4994447;28;20408;-47
2021/08/15 11:59:47;;;;;;;6.40;3.40;;;;;;;;;;4994051;28;20411;-48
2021/08/15 12:02:18;;;;;;;5.80;4.07;;;;;;;;;;4994179;28;20459;-47
2021/08/15 12:04:45;;;;;;;7.57;3.53;;;;;;;;;;4994582;28;20432;-48
2021/08/15 12:07:11;;;;;;;5.70;4.07;;;;;;;;;;4992876;28;20404;-48
2021/08/15 12:09:37;;;;;;;5.93;3.50;;;;;;;;;;4993923;28;20399;-47
2021/08/15 12:12:08;;;;;;;4.13;3.10;;;;;;;;;;4993911;28;20428;-48
2021/08/15 12:14:40;;;;;;;4.33;3.93;;;;;;;;;;4993785;28;20420;-48
2021/08/15 12:17:07;;;;;;;6.93;2.90;;;;;;;;;;4993722;28;20416;-48
2021/08/15 12:19:34;;;;;;;10.77;3.87;;;;;;;;;;4994010;28;20764;-48
2021/08/15 12:22:01;;;;;;;6.13;3.43;;;;;;;;;;4993500;28;20471;-47
2021/08/15 12:24:28;;;;;;;5.20;3.47;;;;;;;;;;4993694;28;20405;-48
2021/08/15 12:27:00;;;;;;;4.93;3.80;;;;;;;;;;4993487;28;20895;-48
2021/08/15 12:29:26;;;;;;;5.50;3.23;;;;;;;;;;4993796;28;20415;-48
2021/08/15 12:32:11;;;;;;;4.90;4.33;;;;;;;;;;4993432;28;20435;-48
2021/08/15 12:34:39;;;;;;;4.47;3.40;;;;;;;;;;4993715;28;20450;-47
2021/08/15 12:37:16;;;;;;;10.20;3.87;;;;;;;;;;4993562;28;20406;-47
2021/08/15 12:39:43;;;;;;;5.27;3.70;;;;;;;;;;4993392;28;20903;-47
2021/08/15 12:42:15;;;;;;;4.97;3.30;;;;;;;;;;4993633;28;20467;-47
2021/08/15 12:44:54;;;;;;;5.40;3.53;;;;;;;;;;4993499;28;20408;-49
2021/08/15 12:47:29;;;;;;;5.50;3.80;;;;;;;;;;4993527;28;20404;-47
2021/08/15 12:50:15;;;;;;;11.50;3.43;;;;;;;;;;4993252;28;20554;-49
2021/08/15 12:52:41;;;;;;;6.13;2.97;;;;;;;;;;4993221;28;20455;-48
2021/08/15 12:55:07;;;;;;;5.90;3.67;;;;;;;;;;4993352;28;20423;-48
2021/08/15 12:57:34;;;;;;;3.97;3.27;;;;;;;;;;4993359;28;20404;-48
2021/08/15 13:00:01;;;;;;;5.03;3.30;;;;;;;;;;4993057;28;20780;-47
2021/08/15 13:02:27;;;;;;;5.07;3.23;;;;;;;;;;4992049;28;20822;-47
2021/08/15 13:04:56;;;;;;;4.80;3.70;;;;;;;;;;4993270;28;20404;-47
2021/08/15 13:07:22;;;;;;;3.30;3.00;;;;;;;;;;4993288;28;20813;-48
2021/08/15 13:09:48;;;;;;;4.73;2.90;;;;;;;;;;4992928;28;20492;-48
2021/08/15 13:12:14;;;;;;;4.63;3.10;;;;;;;;;;4993054;28;20472;-47
2021/08/15 13:14:40;;;;;;;3.87;3.47;;;;;;;;;;4992962;28;20165;-48
2021/08/15 13:17:06;;;;;;;3.67;2.80;;;;;;;;;;4992894;28;20180;-48
2021/08/15 13:19:32;;;;;;;5.90;2.63;;;;;;;;;;4992974;28;20407;-50
2021/08/15 13:21:58;;;;;;;4.03;2.90;;;;;;;;;;4992766;28;20491;-49
2021/08/15 13:24:24;;;;;;;6.03;2.70;;;;;;;;;;4993001;28;20499;-50
2021/08/15 13:26:50;;;;;;;4.63;2.97;;;;;;;;;;4992682;28;20404;-49
2021/08/15 13:29:16;;;;;;;8.33;3.40;;;;;;;;;;4993054;28;20465;-50
2021/08/15 13:31:42;;;;;;;5.90;3.00;;;;;;;;;;4992322;28;20432;-47
2021/08/15 13:34:08;;;;;;;5.10;4.07;;;;;;;;;;4992880;28;20403;-47
2021/08/15 13:36:35;;;;;;;9.20;3.90;;;;;;;;;;4992631;28;20404;-47
2021/08/15 13:39:01;;;;;;;3.27;2.90;;;;;;;;;;4992622;28;20408;-48
2021/08/15 13:41:27;;;;;;;4.97;2.70;;;;;;;;;;4992266;28;20463;-48
2021/08/15 13:43:53;;;;;;;5.60;3.30;;;;;;;;;;4992439;28;20404;-50
2021/08/15 13:46:19;;;;;;;12.37;3.30;;;;;;;;;;4992429;28;20252;-49
2021/08/15 13:48:45;;;;;;;5.40;3.40;;;;;;;;;;4992385;28;20197;-48
2021/08/15 13:51:12;;;;;;;3.80;3.40;;;;;;;;;;4992200;28;20411;-50
2021/08/15 13:53:38;;;;;;;3.20;2.90;;;;;;;;;;4992431;28;20866;-48
2021/08/15 13:56:05;;;;;;;3.43;3.03;;;;;;;;;;4992248;28;20412;-48
2021/08/15 13:58:32;;;;;;;4.07;3.30;;;;;;;;;;4992089;28;20956;-48
2021/08/15 14:00:58;;;;;;;6.30;3.23;;;;;;;;;;4992188;28;20448;-48
2021/08/15 14:03:24;;;;;;;5.23;3.00;;;;;;;;;;4992067;28;20416;-48
2021/08/15 14:05:50;;;;;;;3.43;3.13;;;;;;;;;;4992174;28;20915;-48
2021/08/15 14:08:16;;;;;;;4.90;3.33;;;;;;;;;;4991900;28;20546;-48
2021/08/15 14:10:43;;;;;;;4.00;2.93;;;;;;;;;;4991878;28;20435;-48
2021/08/15 14:13:10;;;;;;;4.27;3.00;;;;;;;;;;4991783;28;20948;-48
2021/08/15 14:15:37;;;;;;;3.33;3.03;;;;;;;;;;4991827;28;20404;-48
2021/08/15 14:18:03;;;;;;;5.10;3.50;;;;;;;;;;4991965;28;20404;-48
2021/08/15 14:20:29;;;;;;;10.87;3.80;;;;;;;;;;4991647;28;20820;-48
2021/08/15 14:22:55;;;;;;;3.33;3.03;;;;;;;;;;4991757;28;20467;-48
2021/08/15 14:25:21;;;;;;;3.63;3.33;;;;;;;;;;4991730;28;20446;-48
2021/08/15 14:27:47;;;;;;;6.90;3.40;;;;;;;;;;4991651;28;20408;-48
2021/08/15 14:30:14;;;;;;;6.30;3.63;;;;;;;;;;4991417;28;20403;-48
2021/08/15 14:32:41;;;;;;;3.03;2.73;;;;;;;;;;4985887;28;20451;-48